Etusivu
METAR-TAF:

METAR-TAF

Lentoasemat :

Wittmund, Saksa

Leveyspiiri: 53-33N, Pituuspiiri: 007-40E, korkeus merenpinnasta: 8 m

Tämänhetkinen sää

Tämä raportti tehtiin 1 tunti ja 14 minuuttia sitten, kello 07.20 UTC
Tuuli 10 kn etelästä
Lämpötila 16°C
Kosteus 82%
Ilmanpaine 1010 hPa

METAR: ETNT 140720Z AUTO 17010KT //// // ////// 16/13 Q1010 ///

Aika: 10:34 (08:34 UTC)


TAF: puuttuu

Säähavainnot ja -ennusteet yli 4000 lentoasemalta (METAR- ja TAF-raportit).

Käytössä olevat sääasemat on merkitty karttaan keltaisilla ja punaisilla pisteillä.

Aseta hiiri pisteen päälle nähdäksesi sääaseman nimen.

Klikkaa sitten nähdäksesi säähavainnot ja -ennusteet.

Kartan vaihtaminen: klikkaa mustalla rastilla varustettuja vihreitä pisteitä, niin voit zoomata sisään; viivalla varustettua vihreää pistettä, niin voit zoomata ulos tai vihreitä nuolia, niin pääset viereisille kartoille.


METAR-TAF: